Time;durP1;ratioP1;P1;durP2;ratioP2;P2;SDS_P1;SDS_P2;PMS_P1;PMS_P2;Temp;Humidity;BMP_temperature;BMP_pressure;BME280_temperature;BME280_humidity;BME280_pressure;Samples;Min_cycle;Max_cycle;Signal;HPM_P1;HPM_P2
2023/03/09 00:01:32;;;;;;;17.90;8.43;;;2.10;99.90;;;;;;6250645;22;20370;-78
2023/03/09 00:03:59;;;;;;;17.50;7.60;;;2.10;99.90;;;;;;6250852;22;20107;-78
2023/03/09 00:06:25;;;;;;;15.93;8.68;;;2.10;99.90;;;;;;6250905;22;20047;-78
2023/03/09 00:08:50;;;;;;;14.40;7.47;;;2.10;99.90;;;;;;6250862;22;20012;-79
2023/03/09 00:11:17;;;;;;;15.45;7.80;;;2.10;99.90;;;;;;6250861;22;20023;-78
2023/03/09 00:13:44;;;;;;;17.33;8.30;;;2.00;99.90;;;;;;6250894;22;20019;-78
2023/03/09 00:16:23;;;;;;;16.25;8.02;;;2.00;99.90;;;;;;6250829;22;20019;-78
2023/03/09 00:18:51;;;;;;;16.98;9.07;;;2.00;99.90;;;;;;6250890;22;20462;-78
2023/03/09 00:21:38;;;;;;;19.23;9.57;;;1.90;99.90;;;;;;6250799;22;20057;-78
2023/03/09 00:24:12;;;;;;;15.05;8.23;;;2.00;99.90;;;;;;6250961;22;20012;-78
2023/03/09 00:26:40;;;;;;;17.40;8.50;;;1.90;99.90;;;;;;6250681;22;20351;-79
2023/03/09 00:29:11;;;;;;;17.98;8.35;;;1.80;99.90;;;;;;6250724;22;20083;-79
2023/03/09 00:31:37;;;;;;;20.20;8.48;;;1.80;99.90;;;;;;6250716;22;20348;-79
2023/03/09 00:34:03;;;;;;;19.15;7.75;;;1.80;99.90;;;;;;6250696;22;20489;-79
2023/03/09 00:36:29;;;;;;;16.80;8.30;;;1.80;99.90;;;;;;6278291;22;20058;-79
2023/03/09 00:38:56;;;;;;;19.85;9.32;;;1.70;99.90;;;;;;6250810;22;20379;-79
2023/03/09 00:41:23;;;;;;;17.05;9.10;;;1.70;99.90;;;;;;6250631;22;20026;-79
2023/03/09 00:43:49;;;;;;;17.92;9.02;;;1.60;99.90;;;;;;6278209;22;20019;-79
2023/03/09 00:46:15;;;;;;;17.48;8.82;;;1.60;99.90;;;;;;6250745;22;20046;-78
2023/03/09 00:48:41;;;;;;;19.05;9.57;;;1.60;99.90;;;;;;6250610;22;20028;-79
2023/03/09 00:51:08;;;;;;;20.35;9.63;;;1.50;99.90;;;;;;6250544;22;20458;-78
2023/03/09 00:53:34;;;;;;;18.90;9.35;;;1.50;99.90;;;;;;6277552;22;20335;-79
2023/03/09 00:56:06;;;;;;;19.70;8.80;;;1.40;99.90;;;;;;6250463;22;20049;-78
2023/03/09 00:58:32;;;;;;;19.10;9.70;;;1.40;99.90;;;;;;6277951;22;20011;-78
2023/03/09 01:00:58;;;;;;;18.20;9.40;;;1.40;99.90;;;;;;6277189;22;20024;-79
2023/03/09 01:03:23;;;;;;;20.92;9.25;;;1.30;99.90;;;;;;6278271;22;20344;-78
2023/03/09 01:05:49;;;;;;;18.70;9.10;;;1.30;99.90;;;;;;6278439;22;20050;-78
2023/03/09 01:08:15;;;;;;;19.23;9.65;;;1.30;99.90;;;;;;6250275;22;20022;-78
2023/03/09 01:10:42;;;;;;;21.90;11.15;;;1.20;99.90;;;;;;6250367;22;20042;-78
2023/03/09 01:13:09;;;;;;;20.30;10.48;;;1.20;99.90;;;;;;6250219;22;20012;-78
2023/03/09 01:15:35;;;;;;;22.77;10.30;;;1.20;99.90;;;;;;6250273;22;20081;-78
2023/03/09 01:18:01;;;;;;;23.85;10.68;;;1.20;99.90;;;;;;6250269;22;20062;-79
2023/03/09 01:20:27;;;;;;;19.98;9.25;;;1.20;99.90;;;;;;6250260;22;20439;-78
2023/03/09 01:22:53;;;;;;;22.63;10.85;;;1.10;99.90;;;;;;6250321;22;20344;-78
2023/03/09 01:25:18;;;;;;;22.55;10.35;;;1.20;99.90;;;;;;6250302;22;20332;-78
2023/03/09 01:27:44;;;;;;;19.73;10.10;;;1.10;99.90;;;;;;6250698;22;20196;-78
2023/03/09 01:30:11;;;;;;;24.00;10.77;;;1.10;99.90;;;;;;6250268;22;20061;-78
2023/03/09 01:32:37;;;;;;;24.67;11.20;;;1.10;99.90;;;;;;6250082;22;20321;-78
2023/03/09 01:35:04;;;;;;;21.67;11.40;;;1.10;99.90;;;;;;6277582;22;20022;-78
2023/03/09 01:37:30;;;;;;;22.48;10.90;;;1.10;99.90;;;;;;6250042;22;20019;-78
2023/03/09 01:39:56;;;;;;;25.88;10.05;;;1.00;99.90;;;;;;6249960;22;20022;-78
2023/03/09 01:42:21;;;;;;;23.52;11.30;;;1.00;99.90;;;;;;6249990;22;20012;-78
2023/03/09 01:45:09;;;;;;;27.42;12.00;;;1.00;99.90;;;;;;6250020;22;20015;-78
2023/03/09 01:47:35;;;;;;;25.60;12.27;;;1.00;99.90;;;;;;6250064;22;20030;-78
2023/03/09 01:50:02;;;;;;;28.52;12.95;;;1.00;99.90;;;;;;6249993;22;20012;-78
2023/03/09 01:52:32;;;;;;;25.15;11.82;;;1.00;99.90;;;;;;6250142;22;20022;-78
2023/03/09 01:55:10;;;;;;;26.05;11.95;;;1.00;99.90;;;;;;6250089;22;20019;-78
2023/03/09 01:57:55;;;;;;;23.00;10.57;;;1.00;99.90;;;;;;6250091;22;20095;-78
2023/03/09 02:00:24;;;;;;;26.52;11.30;;;1.00;99.90;;;;;;6250210;22;20047;-78
2023/03/09 02:02:57;;;;;;;21.02;10.40;;;0.90;99.90;;;;;;6250039;22;20015;-78
2023/03/09 02:05:31;;;;;;;23.90;11.25;;;0.90;99.90;;;;;;6277495;22;20097;-78
2023/03/09 02:07:58;;;;;;;26.20;11.43;;;1.00;99.90;;;;;;6249914;22;20101;-78
2023/03/09 02:10:35;;;;;;;22.50;11.02;;;1.00;99.90;;;;;;6249958;22;20022;-78
2023/03/09 02:13:07;;;;;;;23.58;11.73;;;1.00;99.90;;;;;;6249798;22;20012;-78
2023/03/09 02:15:33;;;;;;;22.90;10.77;;;1.00;99.90;;;;;;6250004;22;20057;-78
2023/03/09 02:17:59;;;;;;;25.20;12.15;;;1.00;99.90;;;;;;6249845;22;20011;-78
2023/03/09 02:20:33;;;;;;;24.15;12.43;;;1.10;99.90;;;;;;6276785;22;20019;-78
2023/03/09 02:22:59;;;;;;;23.98;11.70;;;1.10;99.90;;;;;;6249721;22;20039;-78
2023/03/09 02:25:37;;;;;;;27.35;12.75;;;1.20;99.90;;;;;;6249464;22;20030;-78
2023/03/09 02:28:05;;;;;;;25.67;11.90;;;1.10;99.90;;;;;;6249735;22;20011;-78
2023/03/09 02:30:35;;;;;;;28.33;12.50;;;1.10;99.90;;;;;;6249765;22;20101;-78
2023/03/09 02:33:07;;;;;;;27.40;13.05;;;1.10;99.90;;;;;;6249316;22;20012;-78
2023/03/09 02:35:33;;;;;;;24.27;11.68;;;1.10;99.90;;;;;;6249621;22;20022;-78
2023/03/09 02:37:58;;;;;;;30.48;13.90;;;1.10;99.90;;;;;;6249647;22;20091;-78
2023/03/09 02:40:33;;;;;;;28.83;13.13;;;1.10;99.90;;;;;;6249705;22;20020;-78
2023/03/09 02:43:02;;;;;;;27.27;11.80;;;1.20;99.90;;;;;;6249668;22;20087;-78
2023/03/09 02:45:29;;;;;;;28.80;12.65;;;1.20;99.90;;;;;;6249570;22;20470;-78
2023/03/09 02:47:56;;;;;;;28.33;12.38;;;1.10;99.90;;;;;;6249569;22;20100;-79
2023/03/09 02:50:22;;;;;;;25.75;12.90;;;1.10;99.90;;;;;;6249481;22;20091;-78
2023/03/09 02:52:48;;;;;;;27.00;12.45;;;1.10;99.90;;;;;;6249381;22;20051;-78
2023/03/09 02:55:14;;;;;;;28.15;12.52;;;1.00;99.90;;;;;;6276500;22;20482;-78
2023/03/09 02:57:41;;;;;;;28.05;11.77;;;1.00;99.90;;;;;;6276964;22;20082;-78
2023/03/09 03:00:10;;;;;;;24.13;11.98;;;1.00;99.90;;;;;;6249223;22;20091;-78
2023/03/09 03:02:39;;;;;;;25.85;11.88;;;1.10;99.90;;;;;;6276272;22;20012;-78
2023/03/09 03:05:06;;;;;;;25.08;11.57;;;1.00;99.90;;;;;;6249537;22;20072;-78
2023/03/09 03:07:32;;;;;;;24.42;11.77;;;1.00;99.90;;;;;;6249630;22;20020;-78
2023/03/09 03:09:58;;;;;;;29.50;13.25;;;1.10;99.90;;;;;;6249650;22;20012;-79
2023/03/09 03:12:23;;;;;;;25.15;12.52;;;1.20;99.90;;;;;;6250107;22;20347;-78
2023/03/09 03:14:49;;;;;;;25.55;12.45;;;1.20;99.90;;;;;;6276506;22;20023;-79
2023/03/09 03:17:15;;;;;;;29.33;13.75;;;1.20;99.90;;;;;;6276961;22;20016;-79
2023/03/09 03:19:40;;;;;;;25.83;12.75;;;1.40;99.90;;;;;;6249495;22;20016;-79
2023/03/09 03:22:07;;;;;;;27.20;13.60;;;1.40;99.90;;;;;;6249489;22;20016;-79
2023/03/09 03:24:36;;;;;;;27.55;12.52;;;1.40;99.90;;;;;;6250490;22;20026;-79
2023/03/09 03:27:02;;;;;;;27.10;12.63;;;1.40;99.90;;;;;;6251471;22;20011;-79
2023/03/09 03:29:28;;;;;;;26.85;13.23;;;1.40;99.90;;;;;;6251347;22;20397;-79
2023/03/09 03:31:53;;;;;;;29.40;13.02;;;1.40;99.90;;;;;;6251445;22;20330;-79
2023/03/09 03:34:19;;;;;;;30.67;13.23;;;1.40;99.90;;;;;;6251402;22;20016;-78
2023/03/09 03:36:45;;;;;;;26.35;12.80;;;1.50;99.90;;;;;;6251247;22;20016;-78
2023/03/09 03:39:10;;;;;;;31.42;13.95;;;1.50;99.90;;;;;;6251343;22;20045;-78
2023/03/09 03:41:36;;;;;;;30.25;13.27;;;1.50;99.90;;;;;;6251369;22;20019;-78
2023/03/09 03:44:02;;;;;;;31.90;15.50;;;1.50;99.90;;;;;;6251413;22;20098;-78
2023/03/09 03:46:27;;;;;;;35.20;15.38;;;1.50;99.90;;;;;;6251283;22;20012;-78
2023/03/09 03:48:53;;;;;;;31.58;15.27;;;1.50;99.90;;;;;;6251175;22;20015;-78
2023/03/09 03:51:19;;;;;;;32.58;15.10;;;1.50;99.90;;;;;;6251201;22;20016;-79
2023/03/09 03:53:44;;;;;;;34.30;15.63;;;1.50;99.90;;;;;;6250853;22;20073;-79
2023/03/09 03:56:10;;;;;;;31.88;13.75;;;1.50;99.90;;;;;;6251184;22;20012;-78
2023/03/09 03:58:36;;;;;;;33.47;14.50;;;1.50;99.90;;;;;;6278567;22;20116;-78
2023/03/09 04:01:02;;;;;;;31.48;13.32;;;1.50;99.90;;;;;;6250954;22;20378;-79
2023/03/09 04:03:27;;;;;;;32.03;14.68;;;1.50;99.90;;;;;;6251411;22;20366;-78
2023/03/09 04:05:53;;;;;;;29.38;14.35;;;1.40;99.90;;;;;;6251101;22;20102;-78
2023/03/09 04:08:18;;;;;;;33.63;14.30;;;1.40;99.90;;;;;;6251056;22;20038;-78
2023/03/09 04:10:44;;;;;;;34.25;15.75;;;1.30;99.90;;;;;;6250779;22;20019;-78
2023/03/09 04:13:10;;;;;;;35.50;15.63;;;1.30;99.90;;;;;;6250942;22;20015;-78
2023/03/09 04:15:36;;;;;;;34.17;15.18;;;1.30;99.90;;;;;;6278353;22;20061;-78
2023/03/09 04:18:02;;;;;;;34.33;14.55;;;1.30;99.90;;;;;;6278367;22;20019;-78
2023/03/09 04:20:28;;;;;;;29.25;13.85;;;1.30;99.90;;;;;;6250944;22;20417;-78
2023/03/09 04:22:54;;;;;;;34.40;15.13;;;1.30;99.90;;;;;;6278323;22;20022;-78
2023/03/09 04:25:19;;;;;;;35.00;16.15;;;1.30;99.90;;;;;;6250658;22;20023;-78
2023/03/09 04:27:45;;;;;;;33.15;15.35;;;1.20;99.90;;;;;;6250863;22;20049;-78
2023/03/09 04:30:12;;;;;;;30.80;14.80;;;1.30;99.90;;;;;;6250829;22;20012;-78
2023/03/09 04:32:37;;;;;;;29.00;14.63;;;1.20;99.90;;;;;;6250816;22;20020;-78
2023/03/09 04:35:04;;;;;;;31.23;15.00;;;1.20;99.90;;;;;;6250632;22;20085;-78
2023/03/09 04:37:30;;;;;;;33.10;14.20;;;1.20;99.90;;;;;;6250709;22;20344;-78
2023/03/09 04:39:55;;;;;;;29.85;13.45;;;1.20;99.90;;;;;;6250788;22;20049;-78
2023/03/09 04:42:21;;;;;;;30.08;14.15;;;1.20;99.90;;;;;;6277536;22;20020;-78
2023/03/09 04:44:47;;;;;;;32.45;14.98;;;1.20;99.90;;;;;;6250654;22;20099;-78
2023/03/09 04:47:13;;;;;;;28.85;14.43;;;1.10;99.90;;;;;;6250687;22;20018;-78
2023/03/09 04:49:40;;;;;;;32.22;14.23;;;1.20;99.90;;;;;;6250545;22;20444;-78
2023/03/09 04:52:06;;;;;;;30.77;14.45;;;1.20;99.90;;;;;;6250549;22;20024;-78
2023/03/09 04:54:31;;;;;;;28.02;12.80;;;1.20;99.90;;;;;;6250417;22;20391;-78
2023/03/09 04:56:57;;;;;;;29.00;13.55;;;1.10;99.90;;;;;;6277878;22;20008;-78
2023/03/09 04:59:23;;;;;;;29.90;13.38;;;1.10;99.90;;;;;;6250484;22;20066;-78
2023/03/09 05:01:51;;;;;;;28.15;14.57;;;1.10;99.90;;;;;;6277227;22;20015;-78
2023/03/09 05:04:18;;;;;;;29.77;12.43;;;1.10;99.90;;;;;;6250436;22;20016;-78
2023/03/09 05:06:44;;;;;;;23.48;11.77;;;1.10;99.90;;;;;;6250089;22;20019;-78
2023/03/09 05:09:10;;;;;;;29.55;13.52;;;1.10;99.90;;;;;;6250400;22;20023;-78
2023/03/09 05:11:36;;;;;;;25.70;12.25;;;1.10;99.90;;;;;;6250361;22;20508;-78
2023/03/09 05:14:02;;;;;;;22.88;11.57;;;1.10;99.90;;;;;;6250290;22;20062;-78
2023/03/09 05:16:28;;;;;;;26.00;12.10;;;1.20;99.90;;;;;;6250234;22;20055;-78
2023/03/09 05:18:54;;;;;;;24.13;12.65;;;1.20;99.90;;;;;;6250350;22;20012;-78
2023/03/09 05:21:20;;;;;;;25.65;11.55;;;1.20;99.90;;;;;;6250354;22;20020;-78
2023/03/09 05:23:46;;;;;;;21.55;11.02;;;1.10;99.90;;;;;;6250301;22;20455;-78
2023/03/09 05:26:12;;;;;;;26.05;11.80;;;1.10;99.90;;;;;;6250274;22;20073;-78
2023/03/09 05:28:40;;;;;;;22.75;12.07;;;1.10;99.90;;;;;;6250686;22;20368;-78
2023/03/09 05:31:13;;;;;;;24.85;12.20;;;1.20;99.90;;;;;;6250183;22;20058;-78
2023/03/09 05:33:39;;;;;;;21.75;10.25;;;1.10;99.90;;;;;;6250104;22;20024;-78
2023/03/09 05:36:16;;;;;;;20.02;10.75;;;1.10;99.90;;;;;;6250190;22;20500;-78
2023/03/09 05:38:41;;;;;;;22.45;10.30;;;1.10;99.90;;;;;;6250132;22;20051;-78
2023/03/09 05:41:07;;;;;;;18.52;10.93;;;1.10;99.90;;;;;;6250079;22;20074;-78
2023/03/09 05:43:35;;;;;;;22.67;11.13;;;1.10;99.90;;;;;;6250153;22;20020;-78
2023/03/09 05:46:02;;;;;;;20.70;10.63;;;1.10;99.90;;;;;;6250226;22;20016;-78
2023/03/09 05:48:28;;;;;;;24.10;11.90;;;1.10;99.90;;;;;;6249965;22;20057;-78
2023/03/09 05:50:53;;;;;;;24.40;11.88;;;1.10;99.90;;;;;;6250045;22;20456;-78
2023/03/09 05:53:19;;;;;;;21.92;11.18;;;1.10;99.90;;;;;;6250195;22;20022;-78
2023/03/09 05:55:51;;;;;;;21.33;10.60;;;1.10;99.90;;;;;;6277203;22;20012;-78
2023/03/09 05:58:17;;;;;;;20.00;11.27;;;1.10;99.90;;;;;;6250333;22;20019;-78
2023/03/09 06:00:42;;;;;;;23.58;12.27;;;1.00;99.90;;;;;;6249889;22;20018;-78
2023/03/09 06:03:08;;;;;;;24.90;13.95;;;1.10;99.90;;;;;;6249583;22;20012;-78
2023/03/09 06:05:34;;;;;;;20.20;12.15;;;1.00;99.90;;;;;;6249436;22;20020;-78
2023/03/09 06:08:00;;;;;;;22.60;10.68;;;1.10;99.90;;;;;;6248935;22;20035;-78
2023/03/09 06:10:25;;;;;;;22.98;10.15;;;1.00;99.90;;;;;;6249798;22;20043;-78
2023/03/09 06:12:51;;;;;;;23.58;12.15;;;1.00;99.90;;;;;;6277209;22;20035;-78
2023/03/09 06:15:17;;;;;;;21.40;11.45;;;1.00;99.90;;;;;;6249573;22;20026;-78
2023/03/09 06:17:43;;;;;;;21.38;10.88;;;1.00;99.90;;;;;;6249744;22;20012;-78
2023/03/09 06:20:09;;;;;;;24.30;12.43;;;1.00;99.90;;;;;;6249757;22;20011;-78
2023/03/09 06:22:34;;;;;;;23.30;11.18;;;1.00;99.90;;;;;;6249817;22;20022;-78
2023/03/09 06:25:00;;;;;;;23.38;11.18;;;0.90;99.90;;;;;;6249740;22;20058;-78
2023/03/09 06:27:26;;;;;;;22.23;11.25;;;0.90;99.90;;;;;;6249837;22;20177;-78
2023/03/09 06:29:54;;;;;;;20.63;11.65;;;0.90;99.90;;;;;;6277231;22;20023;-79
2023/03/09 06:32:20;;;;;;;21.50;11.80;;;0.90;99.90;;;;;;6249936;22;20019;-78
2023/03/09 06:34:46;;;;;;;21.30;11.48;;;0.90;99.90;;;;;;6276843;22;20023;-79
2023/03/09 06:37:12;;;;;;;20.67;11.13;;;0.80;99.90;;;;;;6249839;22;20081;-79
2023/03/09 06:39:37;;;;;;;22.40;12.63;;;0.80;99.90;;;;;;6249542;22;20016;-79
2023/03/09 06:42:05;;;;;;;21.70;11.32;;;0.80;99.90;;;;;;6249723;22;20066;-79
2023/03/09 06:44:30;;;;;;;20.98;11.40;;;0.80;99.90;;;;;;6249667;22;20012;-79
2023/03/09 06:46:56;;;;;;;19.77;10.88;;;0.80;99.90;;;;;;6249633;22;20033;-79
2023/03/09 06:49:22;;;;;;;20.80;11.10;;;0.80;99.90;;;;;;6249688;22;20078;-78
2023/03/09 06:51:47;;;;;;;23.05;11.63;;;0.80;99.90;;;;;;6249232;22;20007;-79
2023/03/09 06:54:14;;;;;;;19.00;10.90;;;0.90;99.90;;;;;;6249610;22;20082;-79
2023/03/09 06:56:40;;;;;;;21.20;11.95;;;0.80;99.90;;;;;;6249780;22;20102;-79
2023/03/09 06:59:06;;;;;;;21.55;11.82;;;0.80;99.90;;;;;;6250391;22;20382;-79
2023/03/09 07:01:33;;;;;;;22.40;11.88;;;0.80;99.90;;;;;;6251746;22;20086;-78
2023/03/09 07:03:59;;;;;;;21.45;11.68;;;0.80;99.90;;;;;;6251838;22;20019;-78
2023/03/09 07:06:25;;;;;;;21.65;12.25;;;0.90;99.90;;;;;;6279261;22;20015;-79
2023/03/09 07:08:50;;;;;;;21.50;11.30;;;1.00;99.90;;;;;;6251577;22;20027;-86
2023/03/09 07:11:16;;;;;;;19.50;11.95;;;1.10;99.90;;;;;;6251719;22;20099;-80
2023/03/09 07:13:42;;;;;;;21.38;12.15;;;1.20;99.90;;;;;;6278722;22;20099;-80
2023/03/09 07:16:07;;;;;;;21.77;11.50;;;1.20;99.90;;;;;;6251658;22;20428;-82
2023/03/09 07:18:34;;;;;;;21.42;11.35;;;1.40;99.90;;;;;;6251747;22;20048;-83
2023/03/09 07:21:01;;;;;;;21.75;12.57;;;1.50;99.90;;;;;;6251748;22;20016;-80
2023/03/09 07:23:28;;;;;;;19.80;11.07;;;1.60;99.90;;;;;;6251322;22;20023;-80
2023/03/09 07:25:57;;;;;;;21.65;11.25;;;1.60;99.90;;;;;;6251098;22;20051;-82
2023/03/09 07:28:23;;;;;;;18.60;10.35;;;1.70;99.90;;;;;;6251517;22;20065;-80
2023/03/09 07:30:48;;;;;;;18.83;10.93;;;1.80;99.90;;;;;;6251663;22;20020;-80
2023/03/09 07:33:14;;;;;;;20.30;11.57;;;1.80;99.90;;;;;;6251540;22;20012;-80
2023/03/09 07:35:42;;;;;;;19.83;10.68;;;1.90;99.90;;;;;;6251619;22;20016;-80
2023/03/09 07:38:08;;;;;;;18.77;11.75;;;1.90;99.90;;;;;;6251375;22;20022;-80
2023/03/09 07:40:34;;;;;;;20.35;10.70;;;2.10;99.90;;;;;;6251564;22;20020;-80
2023/03/09 07:43:00;;;;;;;17.85;9.32;;;2.20;99.90;;;;;;6251522;22;20034;-82
2023/03/09 07:45:25;;;;;;;18.42;10.02;;;2.30;99.90;;;;;;6251470;22;20104;-81
2023/03/09 07:47:51;;;;;;;19.15;10.10;;;2.30;99.90;;;;;;6251528;22;20026;-81
2023/03/09 07:50:17;;;;;;;18.33;10.00;;;2.50;99.90;;;;;;6278560;22;20321;-84
2023/03/09 07:52:47;;;;;;;17.95;9.70;;;2.50;99.90;;;;;;6252113;22;20478;-83
2023/03/09 07:55:13;;;;;;;37.65;22.25;;;2.60;99.90;;;;;;6277210;22;20483;-80
2023/03/09 07:57:40;;;;;;;17.20;9.98;;;2.70;99.90;;;;;;6251395;22;20016;-82
2023/03/09 08:00:12;;;;;;;19.63;10.50;;;2.60;99.90;;;;;;6251421;22;20448;-83
2023/03/09 08:02:40;;;;;;;18.55;9.77;;;2.70;99.90;;;;;;6251075;22;20043;-84
2023/03/09 08:05:08;;;;;;;21.35;10.68;;;2.80;99.90;;;;;;6276518;22;20481;-81
2023/03/09 08:07:34;;;;;;;16.83;10.23;;;2.80;99.90;;;;;;6278676;22;20012;-80
2023/03/09 08:10:00;;;;;;;17.60;9.70;;;2.90;99.90;;;;;;6250910;22;20392;-81
2023/03/09 08:12:25;;;;;;;16.67;9.50;;;2.90;99.90;;;;;;6251264;22;20019;-81
2023/03/09 08:14:51;;;;;;;16.38;9.77;;;2.90;99.90;;;;;;6278234;22;20019;-81
2023/03/09 08:17:17;;;;;;;15.13;9.38;;;2.90;99.90;;;;;;6251217;22;20077;-80
2023/03/09 08:19:43;;;;;;;15.23;8.88;;;2.90;99.90;;;;;;6251155;22;20019;-81
2023/03/09 08:22:08;;;;;;;17.80;8.57;;;3.00;99.90;;;;;;6251137;22;20038;-81
2023/03/09 08:24:34;;;;;;;17.50;9.90;;;3.00;99.90;;;;;;6251168;22;20108;-80
2023/03/09 08:27:00;;;;;;;16.42;9.73;;;3.10;99.90;;;;;;6251059;22;20018;-81
2023/03/09 08:29:25;;;;;;;17.65;9.20;;;3.20;99.90;;;;;;6250862;22;20361;-82
2023/03/09 08:31:51;;;;;;;15.02;9.15;;;3.30;99.90;;;;;;6251102;22;20015;-81
2023/03/09 08:34:20;;;;;;;17.23;9.65;;;3.30;99.90;;;;;;6250908;22;20066;-82
2023/03/09 08:36:46;;;;;;;14.93;8.75;;;3.40;99.90;;;;;;6250880;22;20027;-81
2023/03/09 08:39:12;;;;;;;15.00;8.02;;;3.40;99.90;;;;;;6251009;22;20455;-83
2023/03/09 08:41:38;;;;;;;15.00;9.10;;;3.50;99.90;;;;;;6250987;22;20020;-80
2023/03/09 08:44:03;;;;;;;16.38;9.65;;;3.60;99.90;;;;;;6277835;22;20457;-80
2023/03/09 08:46:29;;;;;;;15.20;9.02;;;3.60;99.90;;;;;;6250601;22;20022;-80
2023/03/09 08:48:56;;;;;;;14.90;8.80;;;3.60;99.90;;;;;;6250785;22;20022;-82
2023/03/09 08:51:22;;;;;;;14.43;8.50;;;3.70;99.90;;;;;;6250594;22;20011;-81
2023/03/09 08:53:48;;;;;;;15.50;9.18;;;3.90;99.90;;;;;;6250769;22;20023;-81
2023/03/09 08:56:14;;;;;;;15.15;8.80;;;4.00;99.90;;;;;;6250760;22;20138;-80
2023/03/09 08:58:40;;;;;;;14.38;8.65;;;4.10;99.90;;;;;;6250661;22;20065;-81
2023/03/09 09:01:11;;;;;;;13.38;8.07;;;4.10;99.90;;;;;;6250461;22;20020;-83
2023/03/09 09:03:38;;;;;;;15.27;8.68;;;4.30;99.90;;;;;;6250647;22;20015;-84
2023/03/09 09:06:22;;;;;;;14.30;8.38;;;4.40;99.90;;;;;;6250622;22;20133;-84
2023/03/09 09:08:47;;;;;;;13.65;7.90;;;4.50;99.90;;;;;;6250609;22;20012;-82
2023/03/09 09:11:15;;;;;;;11.27;7.90;;;4.50;99.90;;;;;;6250613;22;20051;-80
2023/03/09 09:13:41;;;;;;;12.77;7.15;;;4.50;99.90;;;;;;6278003;22;20066;-81
2023/03/09 09:16:08;;;;;;;13.00;7.55;;;4.50;99.90;;;;;;6249221;22;20016;-80
2023/03/09 09:18:36;;;;;;;11.18;6.95;;;4.50;99.90;;;;;;6250372;22;20012;-81
2023/03/09 09:21:10;;;;;;;10.43;6.38;;;4.60;99.90;;;;;;6250028;22;20020;-80
2023/03/09 09:23:38;;;;;;;9.02;5.65;;;4.70;99.90;;;;;;6250107;22;20020;-80
2023/03/09 09:26:05;;;;;;;9.60;5.95;;;4.70;99.90;;;;;;6250341;22;20020;-80
2023/03/09 09:28:31;;;;;;;9.73;5.85;;;4.70;99.90;;;;;;6250188;22;20103;-79
2023/03/09 09:31:03;;;;;;;10.73;7.13;;;4.50;99.90;;;;;;6250274;22;20026;-80
2023/03/09 09:33:31;;;;;;;12.30;7.10;;;4.70;99.90;;;;;;6250071;22;20016;-80
2023/03/09 09:35:58;;;;;;;10.55;6.53;;;4.80;99.90;;;;;;6249942;22;20024;-82
2023/03/09 09:38:25;;;;;;;10.65;6.75;;;4.80;99.90;;;;;;6249984;22;20466;-83
2023/03/09 09:40:55;;;;;;;10.95;6.78;;;5.00;99.90;;;;;;6250145;22;20019;-80
2023/03/09 09:43:23;;;;;;;11.27;6.63;;;5.00;99.90;;;;;;6250178;22;20022;-80
2023/03/09 09:45:53;;;;;;;9.50;5.80;;;5.10;99.90;;;;;;6250178;22;20015;-79
2023/03/09 09:48:20;;;;;;;12.45;7.10;;;5.20;99.90;;;;;;6249885;22;20069;-79
2023/03/09 09:50:48;;;;;;;12.13;7.15;;;5.40;99.90;;;;;;6277512;22;20022;-79
2023/03/09 09:53:23;;;;;;;10.23;5.90;;;5.40;99.90;;;;;;6277299;22;20015;-79
2023/03/09 09:55:51;;;;;;;10.75;6.72;;;5.50;99.90;;;;;;6249905;22;20022;-79
2023/03/09 09:58:37;;;;;;;10.65;7.07;;;5.50;99.90;;;;;;6249957;22;20461;-79
2023/03/09 10:01:21;;;;;;;9.90;6.80;;;5.40;99.90;;;;;;6249781;22;20347;-80
2023/03/09 10:03:51;;;;;;;10.95;6.40;;;5.50;99.90;;;;;;6277056;22;20103;-79
2023/03/09 10:06:22;;;;;;;11.00;6.70;;;5.60;99.90;;;;;;6277216;22;20022;-79
2023/03/09 10:09:04;;;;;;;8.90;5.82;;;5.50;99.90;;;;;;6276896;22;20020;-78
2023/03/09 10:11:48;;;;;;;9.32;5.53;;;5.60;99.90;;;;;;6249871;22;20098;-79
2023/03/09 10:14:38;;;;;;;8.68;5.53;;;5.50;99.90;;;;;;6249540;22;20011;-78
2023/03/09 10:17:11;;;;;;;9.18;5.72;;;5.50;99.90;;;;;;6249934;22;20024;-78
2023/03/09 10:19:40;;;;;;;10.30;6.70;;;5.50;99.90;;;;;;6277266;22;20016;-78
2023/03/09 10:22:27;;;;;;;10.98;6.03;;;5.50;99.90;;;;;;6249912;22;20016;-79
2023/03/09 10:24:55;;;;;;;11.90;7.25;;;5.50;99.90;;;;;;6249617;22;20024;-78
2023/03/09 10:27:26;;;;;;;12.48;7.43;;;5.70;99.90;;;;;;6249605;22;20474;-78
2023/03/09 10:30:10;;;;;;;12.18;7.45;;;5.80;99.90;;;;;;6249675;22;20100;-78
2023/03/09 10:33:00;;;;;;;10.32;6.78;;;5.60;99.90;;;;;;6249506;22;20034;-78
2023/03/09 10:35:49;;;;;;;10.10;6.53;;;5.70;99.90;;;;;;6249577;22;20019;-78
2023/03/09 10:38:17;;;;;;;10.57;6.40;;;5.60;99.90;;;;;;6249621;22;20091;-78
2023/03/09 10:40:45;;;;;;;8.80;6.20;;;5.50;99.90;;;;;;6249381;22;20024;-78
2023/03/09 10:43:27;;;;;;;10.20;6.30;;;5.30;99.90;;;;;;6249413;22;20085;-78
2023/03/09 10:45:54;;;;;;;10.38;6.20;;;5.30;99.90;;;;;;6249504;22;20069;-78
2023/03/09 10:48:21;;;;;;;10.75;6.40;;;5.20;99.90;;;;;;6249425;22;20018;-78
2023/03/09 10:51:02;;;;;;;12.05;7.53;;;5.20;99.90;;;;;;6249452;22;20396;-78
2023/03/09 10:53:44;;;;;;;10.90;7.25;;;5.30;99.90;;;;;;6249306;22;20023;-78
2023/03/09 10:56:22;;;;;;;13.00;6.90;;;5.30;99.90;;;;;;6249385;22;20051;-78
2023/03/09 10:59:15;;;;;;;11.00;6.72;;;5.20;99.90;;;;;;6276712;22;20039;-78
2023/03/09 11:01:51;;;;;;;11.25;6.97;;;5.30;99.90;;;;;;6243989;22;20459;-78
2023/03/09 11:04:32;;;;;;;12.20;7.30;;;5.30;99.90;;;;;;6249277;22;20062;-78
2023/03/09 11:07:09;;;;;;;11.15;7.63;;;5.30;99.90;;;;;;6249482;22;20012;-77
2023/03/09 11:09:55;;;;;;;9.90;6.75;;;5.30;99.90;;;;;;6249480;22;20020;-77
2023/03/09 11:12:29;;;;;;;11.48;7.00;;;5.30;99.90;;;;;;6249019;22;20047;-77
2023/03/09 11:15:03;;;;;;;10.35;6.78;;;5.30;99.90;;;;;;6276707;22;20011;-77
2023/03/09 11:17:34;;;;;;;10.88;7.60;;;5.10;99.90;;;;;;6249474;22;20062;-77
2023/03/09 11:20:12;;;;;;;11.27;6.85;;;5.30;99.90;;;;;;6249251;22;20020;-77
2023/03/09 11:23:13;;;;;;;11.57;7.55;;;5.30;99.90;;;;;;6249389;22;20019;-77
2023/03/09 11:26:01;;;;;;;12.10;7.53;;;5.50;99.90;;;;;;6123629;23;20029;-77
2023/03/09 11:28:46;;;;;;;11.32;7.18;;;5.60;99.90;;;;;;6241799;22;20039;-77
2023/03/09 11:31:15;;;;;;;12.07;7.63;;;5.60;99.90;;;;;;6249318;22;20019;-77
2023/03/09 11:33:43;;;;;;;10.75;7.00;;;5.50;99.90;;;;;;6249212;22;20061;-79
2023/03/09 11:36:23;;;;;;;10.60;7.47;;;5.60;99.90;;;;;;6276321;22;20379;-78
2023/03/09 11:38:48;;;;;;;9.60;6.55;;;5.50;99.90;;;;;;6276720;22;20007;-77
2023/03/09 11:41:31;;;;;;;11.20;6.93;;;5.50;99.90;;;;;;6276752;22;20012;-77
2023/03/09 11:44:02;;;;;;;10.97;7.40;;;5.50;99.90;;;;;;6276670;22;20581;-77
2023/03/09 11:46:29;;;;;;;11.73;7.82;;;5.40;99.90;;;;;;6250723;22;20022;-78
2023/03/09 11:49:20;;;;;;;10.48;6.85;;;5.10;99.90;;;;;;6250844;22;20019;-77
2023/03/09 11:51:51;;;;;;;10.88;7.18;;;5.10;99.90;;;;;;6233225;22;20350;-77
2023/03/09 11:54:31;;;;;;;10.85;7.70;;;5.10;99.90;;;;;;6250652;22;20034;-79
2023/03/09 11:57:02;;;;;;;11.07;8.00;;;5.00;99.90;;;;;;6250902;22;20019;-77
2023/03/09 11:59:49;;;;;;;10.70;7.20;;;5.00;99.90;;;;;;6250944;22;20043;-78
2023/03/09 12:02:25;;;;;;;11.18;6.90;;;5.00;99.90;;;;;;6277735;22;20497;-77
2023/03/09 12:04:52;;;;;;;10.52;7.15;;;5.00;99.90;;;;;;6250715;22;20012;-77
2023/03/09 12:07:37;;;;;;;12.20;7.20;;;5.00;99.90;;;;;;6250709;22;20466;-78
2023/03/09 12:10:37;;;;;;;9.57;7.18;;;5.10;99.90;;;;;;6278311;22;20107;-77
2023/03/09 12:13:14;;;;;;;10.80;7.05;;;5.00;99.90;;;;;;6250711;22;20025;-78
2023/03/09 12:15:54;;;;;;;11.77;8.05;;;5.00;99.90;;;;;;6251069;22;20061;-78
2023/03/09 12:18:29;;;;;;;11.05;6.80;;;4.90;99.90;;;;;;6250912;22;20012;-77
2023/03/09 12:20:58;;;;;;;11.38;6.45;;;4.90;99.90;;;;;;6250837;22;20016;-77
2023/03/09 12:23:35;;;;;;;9.70;6.35;;;4.90;99.90;;;;;;6250646;22;20051;-77
2023/03/09 12:26:05;;;;;;;11.32;7.20;;;5.10;99.90;;;;;;6278301;22;20026;-77
2023/03/09 12:28:32;;;;;;;11.02;7.32;;;5.00;99.90;;;;;;6250627;22;20443;-77
2023/03/09 12:30:58;;;;;;;10.27;7.20;;;5.10;99.90;;;;;;6250677;22;20047;-77
2023/03/09 12:33:42;;;;;;;11.95;6.95;;;4.90;99.90;;;;;;6250931;22;20023;-77
2023/03/09 12:36:26;;;;;;;10.70;7.35;;;4.90;99.90;;;;;;6250554;22;20024;-77
2023/03/09 12:39:23;;;;;;;9.65;6.63;;;5.00;99.90;;;;;;6277930;22;20012;-77
2023/03/09 12:42:03;;;;;;;10.02;6.57;;;5.00;99.90;;;;;;6250645;22;20095;-77
2023/03/09 12:44:44;;;;;;;11.07;7.78;;;5.10;99.90;;;;;;6250637;22;20516;-77
2023/03/09 12:47:23;;;;;;;9.07;6.00;;;4.80;99.90;;;;;;6250587;22;20051;-79
2023/03/09 12:49:55;;;;;;;10.85;7.10;;;4.90;99.90;;;;;;6250695;22;20027;-76
2023/03/09 12:52:41;;;;;;;10.10;7.25;;;5.00;99.90;;;;;;6277751;22;20016;-78
2023/03/09 12:55:23;;;;;;;11.68;6.60;;;4.90;99.90;;;;;;6277799;22;20095;-77